Time;durP1;ratioP1;P1;durP2;ratioP2;P2;SDS_P1;SDS_P2;PMS_P1;PMS_P2;Temp;Humidity;BMP_temperature;BMP_pressure;BME280_temperature;BME280_humidity;BME280_pressure;Samples;Min_cycle;Max_cycle;Signal;HPM_P1;HPM_P2
2021/12/04 00:00:59;;;;;;;;;1.00;1.00;;;;;22.93;33.71;99331.06;5096581;27;45537;-55
2021/12/04 00:03:24;;;;;;;;;1.00;1.00;;;;;22.92;34.20;99325.91;5095454;27;47329;-60
2021/12/04 00:05:54;;;;;;;;;1.00;1.00;;;;;22.94;34.01;99314.22;5096424;27;45390;-57
2021/12/04 00:08:22;;;;;;;;;1.50;0.25;;;;;22.96;34.05;99316.75;5080005;27;45487;-57
2021/12/04 00:10:47;;;;;;;;;1.00;1.00;;;;;22.98;33.88;99317.47;5100124;27;45589;-54
2021/12/04 00:13:13;;;;;;;;;2.75;2.00;;;;;22.98;34.19;99302.44;5099568;27;46496;-58
2021/12/04 00:15:38;;;;;;;;;1.00;1.00;;;;;22.97;34.11;99308.69;5099628;27;45344;-57
2021/12/04 00:18:04;;;;;;;;;0.75;0.75;;;;;22.96;34.19;99296.44;5099703;27;45368;-56
2021/12/04 00:20:30;;;;;;;;;1.00;1.00;;;;;22.97;33.93;99287.56;5081454;27;45518;-58
2021/12/04 00:22:59;;;;;;;;;1.00;1.00;;;;;22.95;33.87;99281.56;5081119;27;46491;-58
2021/12/04 00:25:25;;;;;;;;;1.00;1.00;;;;;22.97;34.10;99281.44;5099541;27;45345;-56
2021/12/04 00:27:50;;;;;;;;;0.00;0.00;;;;;22.94;34.40;99279.06;5099719;27;45303;-56
2021/12/04 00:30:16;;;;;;;;;0.75;0.75;;;;;22.95;34.26;99283.38;5099882;27;45597;-56
2021/12/04 00:32:46;;;;;;;;;1.25;1.00;;;;;22.93;34.35;99278.22;5099368;27;46175;-55
2021/12/04 00:35:33;;;;;;;;;0.25;0.25;;;;;22.92;34.42;99273.09;5099466;27;45445;-57
2021/12/04 00:49:17;;;;;;;;;0.00;0.00;;;;;22.78;34.46;99269.88;5099533;27;45335;-58
2021/12/04 00:51:54;;;;;;;;;0.50;0.50;;;;;22.72;34.47;99257.22;5099324;27;45341;-61
2021/12/04 00:54:21;;;;;;;;;1.00;0.00;;;;;22.66;34.79;99245.41;5099461;27;46651;-63
2021/12/04 00:56:47;;;;;;;;;1.00;1.00;;;;;22.64;34.80;99257.09;5099040;27;45268;-64
2021/12/04 00:59:14;;;;;;;;;0.00;0.00;;;;;22.62;34.68;99264.31;5099303;27;45392;-62
2021/12/04 01:01:41;;;;;;;;;0.00;0.00;;;;;22.55;34.82;99251.63;5099114;27;45382;-58
2021/12/04 01:04:19;;;;;;;;;1.00;1.00;;;;;22.57;35.07;99254.16;5098827;27;46114;-60
2021/12/04 01:06:44;;;;;;;;;0.00;0.00;;;;;22.58;34.94;99262.91;5098874;27;45222;-58
2021/12/04 01:09:11;;;;;;;;;0.00;0.00;;;;;22.58;35.51;99261.13;5098995;27;45396;-60
2021/12/04 01:11:39;;;;;;;;;0.00;0.00;;;;;22.58;35.18;99252.34;5099241;27;45240;-59
2021/12/04 01:14:06;;;;;;;;;1.00;1.00;;;;;22.58;35.05;99254.97;5098670;27;46797;-56
2021/12/04 01:16:31;;;;;;;;;0.00;0.00;;;;;22.54;35.16;99257.06;5097371;27;46692;-56
2021/12/04 01:18:57;;;;;;;;;0.00;0.00;;;;;22.51;35.07;99255.53;5098751;27;45316;-59
2021/12/04 01:21:22;;;;;;;;;0.00;0.00;;;;;22.49;35.25;99254.84;5098009;27;45544;-57
2021/12/04 01:23:48;;;;;;;;;0.00;0.00;;;;;22.46;35.35;99252.47;5097278;27;47450;-62
2021/12/04 01:26:13;;;;;;;;;0.00;0.00;;;;;22.44;35.49;99258.84;5098741;27;45715;-59
2021/12/04 01:28:39;;;;;;;;;0.50;0.50;;;;;22.41;35.47;99251.19;5097347;27;45355;-61
2021/12/04 01:31:04;;;;;;;;;0.00;0.00;;;;;22.39;35.57;99262.69;5098890;27;45382;-61
2021/12/04 01:33:29;;;;;;;;;0.75;0.00;;;;;22.37;35.68;99255.88;5098421;27;46436;-57
2021/12/04 01:35:55;;;;;;;;;0.00;0.00;;;;;22.35;35.64;99257.81;5098604;27;45358;-60
2021/12/04 01:38:21;;;;;;;;;0.00;0.00;;;;;22.34;35.54;99266.72;5099082;27;45259;-56
2021/12/04 01:40:46;;;;;;;;;0.00;0.00;;;;;22.33;35.56;99255.34;5098679;27;45231;-58
2021/12/04 01:43:12;;;;;;;;;0.00;0.00;;;;;22.32;35.38;99260.75;5098205;27;45685;-58
2021/12/04 01:45:37;;;;;;;;;0.50;0.00;;;;;22.28;35.65;99259.34;5079151;27;45520;-56
2021/12/04 01:48:03;;;;;;;;;0.25;0.25;;;;;22.27;35.83;99262.94;5098449;27;45561;-59
2021/12/04 01:50:34;;;;;;;;;0.00;0.00;;;;;22.27;35.60;99269.03;5098585;27;45591;-57
2021/12/04 01:53:00;;;;;;;;;0.00;0.00;;;;;22.23;35.91;99267.66;5098324;27;45328;-59
2021/12/04 01:55:27;;;;;;;;;0.00;0.00;;;;;22.24;36.00;99274.63;5079860;27;45855;-62
2021/12/04 01:57:53;;;;;;;;;0.00;0.00;;;;;22.21;36.05;99273.06;5098495;27;45537;-56
2021/12/04 02:00:19;;;;;;;;;0.00;0.00;;;;;22.20;35.63;99273.22;5098332;27;45663;-57
2021/12/04 02:02:45;;;;;;;;;0.00;0.00;;;;;22.14;35.98;99268.47;5098084;27;45516;-63
2021/12/04 02:05:11;;;;;;;;;2.00;0.00;;;;;22.15;35.81;99270.97;5079698;27;45498;-56
2021/12/04 02:07:36;;;;;;;;;0.00;0.00;;;;;22.13;36.17;99264.97;5097981;27;45390;-59
2021/12/04 02:10:04;;;;;;;;;0.00;0.00;;;;;22.11;35.84;99269.56;5079895;27;45575;-57
2021/12/04 02:12:30;;;;;;;;;0.00;0.00;;;;;22.08;36.07;99275.13;5097742;27;45263;-61
2021/12/04 02:14:55;;;;;;;;;0.00;0.00;;;;;22.06;36.34;99274.41;5098216;27;45335;-56
2021/12/04 02:17:21;;;;;;;;;0.00;0.00;;;;;22.02;36.28;99281.75;5098444;27;45848;-57
2021/12/04 02:19:47;;;;;;;;;0.00;0.00;;;;;22.00;36.25;99265.22;5098103;27;45665;-57
2021/12/04 02:22:12;;;;;;;;;0.75;0.00;;;;;21.97;36.52;99268.13;5096614;27;46128;-58
2021/12/04 02:24:38;;;;;;;;;0.00;0.00;;;;;21.97;36.42;99268.13;5096407;27;45451;-60
2021/12/04 02:27:04;;;;;;;;;0.00;0.00;;;;;21.95;36.30;99275.31;5097760;27;45371;-57
2021/12/04 02:29:29;;;;;;;;;0.00;0.00;;;;;21.92;36.51;99272.97;5097935;27;45422;-56
2021/12/04 02:31:57;;;;;;;;;0.00;0.00;;;;;21.91;36.85;99273.94;5097111;27;46481;-56
2021/12/04 02:34:25;;;;;;;;;0.00;0.00;;;;;21.89;36.80;99271.41;5097758;27;45231;-56
2021/12/04 02:36:51;;;;;;;;;0.00;0.00;;;;;21.87;36.78;99272.53;5097830;27;45306;-58
2021/12/04 02:39:28;;;;;;;;;0.00;0.00;;;;;21.84;36.44;99265.72;5097792;27;45640;-58
2021/12/04 02:41:54;;;;;;;;;0.00;0.00;;;;;21.82;37.09;99270.28;5097648;27;46332;-59
2021/12/04 02:44:22;;;;;;;;;0.00;0.00;;;;;21.83;36.85;99279.03;5097408;27;45402;-57
2021/12/04 02:46:47;;;;;;;;;0.00;0.00;;;;;21.81;36.55;99273.88;5097463;27;45262;-56
2021/12/04 02:49:14;;;;;;;;;0.00;0.00;;;;;21.78;36.80;99268.84;5097637;27;45514;-56
2021/12/04 02:51:40;;;;;;;;;0.00;0.00;;;;;21.77;37.02;99278.59;5078864;27;48036;-56
2021/12/04 02:54:07;;;;;;;;;0.00;0.00;;;;;21.75;36.98;99275.25;5097223;27;45208;-56
2021/12/04 02:56:32;;;;;;;;;0.00;0.00;;;;;21.74;37.14;99278.03;5097451;27;45355;-56
2021/12/04 02:59:02;;;;;;;;;0.00;0.00;;;;;21.73;37.15;99281.63;5079118;27;45566;-56
2021/12/04 03:01:27;;;;;;;;;0.00;0.00;;;;;21.71;36.83;99278.28;5097008;27;47529;-57
2021/12/04 03:04:12;;;;;;;;;0.00;0.00;;;;;21.70;36.88;99287.16;5097420;27;45230;-56
2021/12/04 03:06:44;;;;;;;;;0.00;0.00;;;;;21.69;37.00;99280.19;5097018;27;45369;-56
2021/12/04 03:09:10;;;;;;;;;0.00;0.00;;;;;21.66;37.48;99283.13;5097246;27;45433;-58
2021/12/04 03:11:35;;;;;;;;;0.00;0.00;;;;;21.67;36.99;99282.13;5096968;27;45464;-57
2021/12/04 03:14:01;;;;;;;;;0.00;0.00;;;;;21.62;37.17;99280.72;5097039;27;45357;-59
2021/12/04 03:16:26;;;;;;;;;0.00;0.00;;;;;21.64;37.81;99285.03;5097436;27;45412;-59
2021/12/04 03:18:52;;;;;;;;;0.00;0.00;;;;;21.62;37.25;99283.38;5097295;27;45414;-59
2021/12/04 03:21:18;;;;;;;;;0.00;0.00;;;;;21.61;37.25;99273.78;5096689;27;46079;-59
2021/12/04 03:23:57;;;;;;;;;0.00;0.00;;;;;21.59;37.38;99270.44;5096806;27;45315;-60
2021/12/04 03:26:22;;;;;;;;;0.00;0.00;;;;;21.60;37.47;99277.38;5096946;27;45323;-60
2021/12/04 03:28:50;;;;;;;;;0.00;0.00;;;;;21.59;37.43;99278.34;5097094;27;45529;-57
2021/12/04 03:31:21;;;;;;;;;0.00;0.00;;;;;21.54;37.26;99277.88;5096713;27;45685;-57
2021/12/04 03:41:58;;;;;;;;;0.00;0.00;;;;;21.53;37.49;99268.31;5096817;27;45678;-61
2021/12/04 03:44:24;;;;;;;;;0.00;0.00;;;;;21.51;37.95;99264.97;5081812;27;45335;-57
2021/12/04 03:46:50;;;;;;;;;0.00;0.00;;;;;21.51;37.87;99275.50;5100424;27;45160;-60
2021/12/04 03:49:15;;;;;;;;;0.00;0.00;;;;;21.49;37.56;99266.88;5065298;27;45215;-56
2021/12/04 03:51:41;;;;;;;;;0.00;0.00;;;;;21.48;38.04;99267.84;5100114;27;45749;-62
2021/12/04 03:54:06;;;;;;;;;0.00;0.00;;;;;21.46;37.72;99267.13;5082057;27;45284;-63
2021/12/04 03:56:32;;;;;;;;;1.00;0.00;;;;;21.46;37.84;99267.13;5099033;27;45299;-65
2021/12/04 03:58:58;;;;;;;;;0.00;0.00;;;;;21.44;37.84;99264.63;5082329;27;45392;-63
2021/12/04 04:01:24;;;;;;;;;0.00;0.00;;;;;21.44;37.81;99262.00;5100096;27;46770;-61
2021/12/04 04:03:49;;;;;;;;;0.00;0.00;;;;;21.44;38.07;99266.44;5099920;27;45399;-59
2021/12/04 04:06:15;;;;;;;;;0.00;0.00;;;;;21.43;38.10;99267.41;5099893;27;45265;-57
2021/12/04 04:08:41;;;;;;;;;0.00;0.00;;;;;21.43;38.12;99275.31;5100320;27;45373;-58
2021/12/04 04:11:07;;;;;;;;;0.00;0.00;;;;;21.40;37.83;99265.03;5099637;27;45462;-63
2021/12/04 04:13:33;;;;;;;;;0.00;0.00;;;;;21.41;38.41;99267.53;5099969;27;45607;-59
2021/12/04 04:16:00;;;;;;;;;0.00;0.00;;;;;21.41;38.05;99270.16;5100241;27;45220;-56
2021/12/04 04:18:26;;;;;;;;;0.00;0.00;;;;;21.39;38.20;99279.16;5099904;27;45307;-62
2021/12/04 04:20:51;;;;;;;;;1.00;0.00;;;;;21.38;38.31;99274.84;5099498;27;46068;-58
2021/12/04 04:23:16;;;;;;;;;0.00;0.00;;;;;21.38;38.10;99272.22;5099710;27;45362;-57
2021/12/04 04:25:42;;;;;;;;;0.00;0.00;;;;;21.36;38.00;99275.00;5099664;27;45223;-58
2021/12/04 04:28:08;;;;;;;;;0.00;0.00;;;;;21.37;38.27;99273.19;5099659;27;45269;-56
2021/12/04 04:30:34;;;;;;;;;0.00;0.00;;;;;21.36;38.60;99269.72;5099509;27;45381;-57
2021/12/04 04:33:01;;;;;;;;;0.00;0.00;;;;;21.36;38.61;99279.41;5099786;27;45376;-57
2021/12/04 04:35:28;;;;;;;;;0.00;0.00;;;;;21.33;38.48;99277.06;5081238;27;45334;-55
2021/12/04 05:15:18;;;;;;;;;0.00;0.00;;;;;21.19;38.40;99241.28;5098809;27;45552;-56
2021/12/04 05:20:18;;;;;;;;;0.00;0.00;;;;;21.19;38.59;99247.41;5098940;27;45485;-56
2021/12/04 05:22:44;;;;;;;;;0.00;0.00;;;;;21.20;38.44;99250.88;5098730;27;47290;-53
2021/12/04 05:25:09;;;;;;;;;0.00;0.00;;;;;21.19;38.84;99252.69;5098760;27;45391;-53
2021/12/04 05:27:35;;;;;;;;;0.00;0.00;;;;;21.19;38.41;99255.31;5080390;27;45274;-60
2021/12/04 05:30:00;;;;;;;;;0.00;0.00;;;;;21.15;38.93;99252.09;5099174;27;45679;-59
2021/12/04 05:32:26;;;;;;;;;0.00;0.00;;;;;21.16;38.97;99253.78;5098423;27;45662;-59
2021/12/04 05:34:51;;;;;;;;;0.00;0.00;;;;;21.16;38.33;99242.38;5098482;27;45481;-54
2021/12/04 05:37:16;;;;;;;;;0.00;0.00;;;;;21.16;38.70;99242.38;5098609;27;45410;-60
2021/12/04 05:39:42;;;;;;;;;2.00;0.00;;;;;21.17;38.65;99249.34;5098813;27;45669;-58
2021/12/04 05:42:07;;;;;;;;;0.00;0.00;;;;;21.15;38.67;99244.22;5098221;27;46550;-54
2021/12/04 05:44:34;;;;;;;;;0.00;0.00;;;;;21.14;38.79;99241.69;5098587;27;45189;-55
2021/12/04 05:47:05;;;;;;;;;0.00;0.00;;;;;21.13;38.81;99243.50;5098353;27;45194;-55
2021/12/04 05:49:37;;;;;;;;;0.00;0.00;;;;;21.14;38.70;99254.84;5098352;27;45580;-54
2021/12/04 05:52:19;;;;;;;;;0.00;0.00;;;;;21.13;38.91;99264.56;5098217;27;46496;-53
2021/12/04 05:54:57;;;;;;;;;0.00;0.00;;;;;21.08;38.44;99250.94;5097997;27;45406;-55
2021/12/04 05:57:23;;;;;;;;;0.00;0.00;;;;;21.12;38.88;99257.63;5098220;27;45449;-55
2021/12/04 05:59:48;;;;;;;;;0.00;0.00;;;;;21.11;39.03;99257.75;5098374;27;45511;-53
2021/12/04 06:02:16;;;;;;;;;0.00;0.00;;;;;21.11;38.92;99252.50;5097834;27;46587;-59
2021/12/04 06:04:41;;;;;;;;;0.00;0.00;;;;;21.11;38.74;99252.50;5098440;27;45766;-52
2021/12/04 06:07:07;;;;;;;;;0.00;0.00;;;;;21.10;39.01;99261.34;5079452;27;45443;-54
2021/12/04 06:09:32;;;;;;;;;0.00;0.00;;;;;21.08;38.64;99250.94;5080163;27;45422;-56
2021/12/04 06:12:04;;;;;;;;;0.00;0.00;;;;;21.09;38.90;99251.78;5097726;27;45410;-56
2021/12/04 06:14:29;;;;;;;;;0.00;0.00;;;;;21.08;39.09;99247.47;5097652;27;45716;-54
2021/12/04 06:16:55;;;;;;;;;0.00;0.00;;;;;21.09;38.68;99254.41;5097925;27;45275;-54
2021/12/04 06:24:48;;;;;;;;;0.00;0.00;;;;;21.06;38.64;99239.69;5097465;27;45816;-53
2021/12/04 06:27:13;;;;;;;;;0.00;0.00;;;;;21.02;38.74;99230.38;5097841;27;45323;-54
2021/12/04 06:29:38;;;;;;;;;1.00;0.00;;;;;21.06;38.95;99230.94;5097780;27;45368;-56
2021/12/04 06:32:04;;;;;;;;;0.00;0.00;;;;;21.06;38.54;99230.94;5097824;27;45452;-62
2021/12/04 06:34:29;;;;;;;;;0.00;0.00;;;;;21.07;39.15;99230.81;5097466;27;45417;-55
2021/12/04 06:36:55;;;;;;;;;0.00;0.00;;;;;21.08;39.10;99218.50;5079160;27;45314;-58
2021/12/04 06:39:20;;;;;;;;;0.00;0.00;;;;;21.08;38.96;99219.31;5097750;27;45426;-60
2021/12/04 06:41:45;;;;;;;;;0.00;0.00;;;;;21.09;38.87;99222.81;5097191;27;45395;-53
2021/12/04 06:44:11;;;;;;;;;0.00;0.00;;;;;21.10;39.28;99224.47;5097319;27;45351;-52
2021/12/04 06:46:36;;;;;;;;;0.00;0.00;;;;;21.08;39.31;99218.50;5097638;27;45375;-62
2021/12/04 06:49:19;;;;;;;;;0.00;0.00;;;;;21.09;39.02;99209.63;5079163;27;45415;-63
2021/12/04 06:51:49;;;;;;;;;0.00;0.00;;;;;21.10;39.10;99221.84;5097425;27;46982;-58
2021/12/04 06:54:20;;;;;;;;;0.00;0.00;;;;;21.07;38.81;99212.38;5097266;27;45585;-57
2021/12/04 06:56:46;;;;;;;;;0.00;0.00;;;;;21.12;39.17;99217.25;5078950;27;45379;-54
2021/12/04 06:59:18;;;;;;;;;0.00;0.00;;;;;21.09;39.49;99215.72;5079268;27;45486;-56
2021/12/04 07:01:43;;;;;;;;;0.00;0.00;;;;;21.08;39.38;99207.97;5096979;27;46241;-54
2021/12/04 07:04:09;;;;;;;;;0.00;0.00;;;;;21.08;39.18;99200.06;5097473;27;45481;-53
2021/12/04 07:06:37;;;;;;;;;0.00;0.00;;;;;21.06;39.00;99208.06;5097242;27;45326;-54
2021/12/04 07:09:03;;;;;;;;;0.00;0.00;;;;;21.06;39.37;99215.16;5079066;27;45628;-62
2021/12/04 07:11:29;;;;;;;;;0.00;0.00;;;;;21.06;39.16;99217.78;5096938;27;47283;-56
2021/12/04 07:13:55;;;;;;;;;0.00;0.00;;;;;21.04;39.12;99201.25;5097060;27;45368;-54
2021/12/04 07:16:21;;;;;;;;;0.00;0.00;;;;;21.01;39.32;99203.19;5097798;27;45389;-54
2021/12/04 07:18:47;;;;;;;;;0.00;0.00;;;;;20.98;39.55;99195.56;5101079;27;45211;-56
2021/12/04 07:21:13;;;;;;;;;0.00;0.00;;;;;21.01;39.66;99197.91;5082189;27;46917;-54
2021/12/04 07:23:39;;;;;;;;;1.50;0.00;;;;;20.98;39.42;99197.34;5100961;27;45315;-59
2021/12/04 07:26:05;;;;;;;;;0.00;0.00;;;;;21.00;39.19;99195.41;5100804;27;45461;-54
2021/12/04 07:28:31;;;;;;;;;0.00;0.00;;;;;20.97;39.43;99190.41;5100959;27;45880;-53
2021/12/04 07:30:56;;;;;;;;;0.00;0.00;;;;;20.96;39.06;99194.84;5100709;27;45608;-56
2021/12/04 07:33:22;;;;;;;;;0.00;0.00;;;;;20.97;39.38;99190.41;5100404;27;45426;-63
2021/12/04 07:35:48;;;;;;;;;0.00;0.00;;;;;20.94;39.47;99194.13;5082346;27;45411;-60
2021/12/04 07:38:14;;;;;;;;;0.00;0.00;;;;;20.94;39.67;99196.75;5100766;27;45557;-61
2021/12/04 07:40:40;;;;;;;;;1.00;0.00;;;;;20.93;39.74;99195.09;5100563;27;45506;-53
2021/12/04 07:43:06;;;;;;;;;0.00;0.00;;;;;20.95;39.47;99202.84;5100251;27;45295;-53
2021/12/04 07:45:32;;;;;;;;;0.75;0.00;;;;;20.93;39.44;99195.09;5100477;27;45217;-54
2021/12/04 07:47:58;;;;;;;;;0.00;0.00;;;;;20.90;39.57;99184.81;5099171;27;45565;-57
2021/12/04 07:50:23;;;;;;;;;0.00;0.00;;;;;20.92;39.52;99196.06;5100133;27;46485;-58
2021/12/04 07:52:49;;;;;;;;;0.00;0.00;;;;;20.88;39.71;99199.91;5100085;27;45379;-56
2021/12/04 07:55:15;;;;;;;;;0.00;0.00;;;;;20.90;39.52;99200.59;5082021;27;45363;-59
2021/12/04 07:57:40;;;;;;;;;0.00;0.00;;;;;20.89;39.87;99198.94;5100785;27;45629;-56
2021/12/04 08:00:10;;;;;;;;;0.00;0.00;;;;;20.88;39.38;99201.72;5099880;27;46143;-58
2021/12/04 08:02:35;;;;;;;;;0.00;0.00;;;;;20.85;39.31;99202.81;5081612;27;45360;-60
2021/12/04 08:05:01;;;;;;;;;0.00;0.00;;;;;20.87;39.38;99200.88;5081666;27;45478;-62
2021/12/04 08:07:26;;;;;;;;;0.00;0.00;;;;;20.81;39.31;99191.69;5100069;27;45570;-59
2021/12/04 08:09:51;;;;;;;;;0.00;0.00;;;;;20.87;39.75;99210.56;5099991;27;46569;-56
2021/12/04 08:12:17;;;;;;;;;0.00;0.00;;;;;20.87;39.68;99210.56;5099861;27;45228;-58
2021/12/04 08:14:42;;;;;;;;;0.00;0.00;;;;;20.85;39.40;99197.53;5100425;27;45303;-58
2021/12/04 08:17:08;;;;;;;;;0.00;0.00;;;;;20.84;39.60;99193.22;5081960;27;45474;-54
2021/12/04 08:19:33;;;;;;;;;0.00;0.00;;;;;20.85;39.38;99202.81;5099758;27;45425;-59
2021/12/04 08:21:59;;;;;;;;;0.00;0.00;;;;;20.83;40.09;99208.22;5099602;27;45339;-57
2021/12/04 08:24:24;;;;;;;;;0.00;0.00;;;;;20.79;39.70;99204.16;5099831;27;45312;-59
2021/12/04 08:26:50;;;;;;;;;0.00;0.00;;;;;20.83;39.84;99228.41;5099973;27;45704;-58
2021/12/04 08:29:15;;;;;;;;;0.00;0.00;;;;;20.82;40.16;99230.22;5098721;27;45808;-56
2021/12/04 08:31:42;;;;;;;;;0.00;0.00;;;;;20.82;39.63;99234.66;5099675;27;45413;-57
2021/12/04 08:34:07;;;;;;;;;0.00;0.00;;;;;20.80;40.33;99224.25;5099646;27;45425;-55
2021/12/04 08:36:33;;;;;;;;;0.00;0.00;;;;;20.81;39.62;99232.97;5099964;27;45499;-58
2021/12/04 08:39:04;;;;;;;;;0.00;0.00;;;;;20.81;40.00;99232.97;5099282;27;46494;-56
2021/12/04 08:41:29;;;;;;;;;0.00;0.00;;;;;20.81;40.04;99254.03;5099426;27;45321;-56
2021/12/04 08:43:55;;;;;;;;;0.00;0.00;;;;;20.80;39.83;99242.69;5099500;27;45406;-59
2021/12/04 08:46:22;;;;;;;;;0.00;0.00;;;;;20.81;40.02;99243.50;5099554;27;46162;-58
2021/12/04 08:48:54;;;;;;;;;0.00;0.00;;;;;20.78;40.38;99243.78;5080832;27;48242;-56
2021/12/04 08:51:22;;;;;;;;;0.00;0.00;;;;;20.78;40.41;99238.50;5080874;27;45757;-56
2021/12/04 08:53:49;;;;;;;;;0.00;0.00;;;;;20.78;40.22;99254.31;5099287;27;45340;-56
2021/12/04 08:56:14;;;;;;;;;1.00;0.00;;;;;20.78;40.29;99256.94;5099788;27;45232;-56
2021/12/04 08:58:41;;;;;;;;;0.00;0.00;;;;;20.75;40.52;99276.44;5098955;27;46984;-56
2021/12/04 09:01:13;;;;;;;;;0.00;0.00;;;;;20.73;40.74;99285.41;5099132;27;45571;-59
2021/12/04 09:03:46;;;;;;;;;0.00;0.00;;;;;20.72;40.29;99281.09;5099041;27;45327;-55
2021/12/04 09:06:12;;;;;;;;;0.00;0.00;;;;;20.69;41.07;99277.72;5081600;27;45467;-53
2021/12/04 09:08:39;;;;;;;;;0.00;0.00;;;;;20.68;40.86;99270.78;5099000;27;45454;-55
2021/12/04 09:11:14;;;;;;;;;0.00;0.00;;;;;20.69;40.77;99290.91;5080516;27;45639;-59
2021/12/04 09:13:40;;;;;;;;;0.00;0.00;;;;;20.68;40.80;99297.13;5099130;27;45290;-57
2021/12/04 09:16:07;;;;;;;;;0.00;0.00;;;;;20.67;40.98;99305.16;5099179;27;45209;-56
2021/12/04 09:18:35;;;;;;;;;0.00;0.00;;;;;20.66;40.85;99303.47;5098745;27;47146;-62
2021/12/04 09:21:01;;;;;;;;;0.00;0.00;;;;;20.65;40.38;99312.31;5098170;27;45461;-59
2021/12/04 09:23:33;;;;;;;;;0.00;0.00;;;;;20.67;40.55;99311.25;5098827;27;45351;-60
2021/12/04 09:26:02;;;;;;;;;0.50;0.00;;;;;20.67;40.28;99305.97;5080636;27;45510;-58
2021/12/04 09:28:53;;;;;;;;;0.75;0.00;;;;;20.69;40.67;99314.59;5098519;27;45475;-54
2021/12/04 10:11:43;;;;;;;;;0.00;0.00;;;;;20.66;40.28;99398.25;5097974;27;45358;-62
2021/12/04 10:22:41;;;;;;;;;1.00;0.00;;;;;20.66;40.14;99404.38;5097869;27;46333;-54
2021/12/04 10:33:23;;;;;;;;;0.00;0.00;;;;;20.68;39.89;99412.97;5097397;27;45370;-56
2021/12/04 10:35:49;;;;;;;;;1.50;0.00;;;;;20.66;39.67;99420.16;5097931;27;45700;-56
2021/12/04 10:38:25;;;;;;;;;0.00;0.00;;;;;20.65;40.01;99421.13;5097585;27;45260;-56
2021/12/04 10:40:54;;;;;;;;;0.00;0.00;;;;;20.63;39.59;99412.50;5097567;27;45406;-53
2021/12/04 10:43:23;;;;;;;;;1.75;0.00;;;;;20.61;39.47;99416.22;5097151;27;46681;-55
2021/12/04 10:45:56;;;;;;;;;0.00;0.00;;;;;20.57;40.00;99409.50;5097658;27;45342;-60
2021/12/04 10:48:27;;;;;;;;;0.00;0.00;;;;;20.58;39.67;99422.53;5097529;27;45454;-55
2021/12/04 10:53:48;;;;;;;;;0.00;0.00;;;;;20.58;40.00;99432.25;5097068;27;46132;-56
2021/12/04 11:04:10;;;;;;;;;0.00;0.00;;;;;20.57;39.75;99441.09;5096985;27;46045;-56
2021/12/04 11:07:55;;;;;;;;;0.00;0.00;;;;;20.55;39.80;99441.22;5095796;27;46120;-56
2021/12/04 11:37:05;;;;;;;;;2.75;0.00;;;;;20.49;39.77;99483.78;5096770;27;45299;-62
2021/12/04 11:47:11;;;;;;;;;1.00;0.00;;;;;20.48;39.65;99498.75;5096693;27;46161;-63
2021/12/04 11:49:36;;;;;;;;;0.00;0.00;;;;;20.46;39.91;99491.91;5096604;27;45537;-63
2021/12/04 11:52:14;;;;;;;;;0.25;0.00;;;;;20.48;40.07;99508.44;5078268;27;45440;-63
2021/12/04 11:54:52;;;;;;;;;1.00;0.00;;;;;20.50;39.97;99510.00;5096691;27;45355;-66
2021/12/04 11:57:31;;;;;;;;;0.50;0.50;;;;;20.52;39.65;99502.81;5096589;27;46558;-66
2021/12/04 12:00:20;;;;;;;;;2.00;1.00;;;;;20.55;39.71;99509.66;5078046;27;45844;-64
2021/12/04 12:02:45;;;;;;;;;2.00;0.00;;;;;20.60;40.03;99512.75;5096660;27;45316;-68
2021/12/04 12:05:18;;;;;;;;;0.00;0.00;;;;;20.66;40.14;99525.47;5099939;27;45371;-62
2021/12/04 12:07:55;;;;;;;;;3.50;3.00;;;;;20.72;40.23;99515.41;5099718;27;45596;-62
2021/12/04 12:10:25;;;;;;;;;19.00;14.50;;;;;20.76;39.72;99519.53;5100038;27;46407;-66
2021/12/04 12:12:56;;;;;;;;;32.25;27.75;;;;;20.79;39.67;99520.13;5082213;27;45387;-60
2021/12/04 12:15:33;;;;;;;;;61.75;45.25;;;;;20.82;40.19;99529.56;5100294;27;45379;-56
2021/12/04 12:18:14;;;;;;;;;79.75;60.50;;;;;20.89;39.83;99546.56;5099463;27;47056;-64
2021/12/04 12:20:49;;;;;;;;;79.00;59.50;;;;;20.92;40.07;99541.06;5099468;27;45813;-64
2021/12/04 12:23:19;;;;;;;;;83.00;68.75;;;;;20.96;40.19;99547.78;5099554;27;45326;-59
2021/12/04 12:34:12;;;;;;;;;97.00;83.00;;;;;21.04;40.29;99572.69;5099356;27;45327;-64
2021/12/04 12:36:38;;;;;;;;;99.75;84.75;;;;;21.04;40.29;99586.69;5099421;27;45438;-58
2021/12/04 12:39:06;;;;;;;;;99.00;79.33;;;;;21.07;40.25;99594.34;5099195;27;46067;-54
2021/12/04 12:41:41;;;;;;;;;83.00;71.25;;;;;21.09;40.09;99610.06;5099142;27;45700;-54
2021/12/04 12:44:17;;;;;;;;;84.00;69.00;;;;;21.07;39.88;99601.41;5099276;27;45511;-57
2021/12/04 12:46:58;;;;;;;;;80.50;67.75;;;;;21.12;40.35;99610.66;5099389;27;45457;-53
2021/12/04 12:49:26;;;;;;;;;76.50;60.00;;;;;21.10;39.94;99609.91;5099477;27;45363;-55
2021/12/04 12:52:07;;;;;;;;;74.00;61.75;;;;;21.17;40.39;99613.75;5099363;27;45398;-54
2021/12/04 12:54:32;;;;;;;;;77.75;58.00;;;;;21.19;40.08;99616.28;5099240;27;45358;-59
2021/12/04 12:57:04;;;;;;;;;76.67;59.67;;;;;21.21;39.69;99630.19;5099262;27;45331;-64
2021/12/04 13:13:29;;;;;;;;;69.00;53.75;;;;;21.23;39.56;99632.69;5098851;27;45769;-57
2021/12/04 13:16:01;;;;;;;;;66.75;50.00;;;;;21.24;39.47;99626.47;5098962;27;45393;-57
2021/12/04 13:18:28;;;;;;;;;63.25;48.50;;;;;21.24;39.40;99635.19;5099575;27;45426;-58
2021/12/04 13:20:59;;;;;;;;;54.50;43.25;;;;;21.24;39.65;99627.28;5098924;27;45543;-56
2021/12/04 13:23:26;;;;;;;;;63.75;48.00;;;;;21.24;39.20;99629.94;5098443;27;45334;-58
2021/12/04 13:26:16;;;;;;;;;64.00;49.25;;;;;21.23;39.16;99632.69;5098094;27;45394;-59
2021/12/04 13:28:45;;;;;;;;;63.50;47.50;;;;;21.21;39.41;99632.81;5098186;27;45688;-60
2021/12/04 13:31:11;;;;;;;;;60.00;45.25;;;;;21.24;39.22;99639.66;5098501;27;45674;-56
2021/12/04 13:33:39;;;;;;;;;60.25;46.50;;;;;21.22;39.12;99631.84;5098453;27;45381;-57
2021/12/04 13:36:37;;;;;;;;;57.75;42.50;;;;;21.21;38.82;99643.34;5098526;27;45341;-57
2021/12/04 13:39:08;;;;;;;;;52.25;41.50;;;;;21.21;39.17;99640.72;5053461;27;45445;-55
2021/12/04 13:41:39;;;;;;;;;52.25;42.25;;;;;21.19;39.09;99649.69;5097063;27;46045;-58
2021/12/04 13:44:06;;;;;;;;;53.00;42.75;;;;;21.19;39.29;99647.91;5098172;27;45762;-55
2021/12/04 13:47:03;;;;;;;;;53.25;39.75;;;;;21.17;38.96;99631.38;5098522;27;45174;-58
2021/12/04 13:49:40;;;;;;;;;47.25;38.25;;;;;21.14;38.90;99629.81;5083629;27;45562;-57
2021/12/04 13:52:09;;;;;;;;;42.50;35.00;;;;;21.15;38.67;99630.63;5097958;27;46479;-57
2021/12/04 13:54:39;;;;;;;;;48.25;36.50;;;;;21.12;38.92;99626.47;5098052;27;45910;-55
2021/12/04 13:57:10;;;;;;;;;49.50;37.75;;;;;21.12;38.53;99636.13;5097917;27;45424;-60
2021/12/04 13:59:35;;;;;;;;;49.50;37.75;;;;;21.11;38.41;99630.03;5098361;27;45599;-60
2021/12/04 14:02:00;;;;;;;;;49.00;38.50;;;;;21.10;38.56;99632.81;5097874;27;45303;-59
2021/12/04 14:04:26;;;;;;;;;43.00;35.75;;;;;21.10;38.14;99632.81;5098292;27;45193;-57
2021/12/04 14:06:54;;;;;;;;;40.75;34.00;;;;;21.10;38.41;99636.28;5097970;27;45667;-57
2021/12/04 14:09:22;;;;;;;;;37.50;32.50;;;;;21.09;38.48;99633.75;5098263;27;45398;-55
2021/12/04 14:11:48;;;;;;;;;35.25;30.50;;;;;21.08;38.69;99634.72;5096539;27;48217;-56
2021/12/04 14:14:14;;;;;;;;;36.25;30.50;;;;;21.08;38.49;99645.25;5097660;27;45398;-56
2021/12/04 14:16:42;;;;;;;;;45.25;33.75;;;;;21.09;38.44;99641.66;5098008;27;45289;-59
2021/12/04 14:19:25;;;;;;;;;34.00;29.25;;;;;21.07;38.51;99651.47;5098058;27;45614;-59
2021/12/04 14:21:59;;;;;;;;;36.25;30.00;;;;;21.08;38.14;99661.06;5097518;27;45394;-58
2021/12/04 14:24:41;;;;;;;;;37.75;32.50;;;;;21.06;38.15;99666.44;5097300;27;45917;-59
2021/12/04 14:27:07;;;;;;;;;31.25;28.00;;;;;21.04;38.21;99665.72;5096478;27;45383;-57
2021/12/04 14:29:42;;;;;;;;;33.25;31.00;;;;;21.04;37.85;99671.00;5097605;27;45668;-58
2021/12/04 14:32:09;;;;;;;;;30.75;26.75;;;;;21.04;38.13;99670.13;5097361;27;45314;-58
2021/12/04 14:34:35;;;;;;;;;31.00;27.25;;;;;21.03;38.01;99676.38;5097401;27;45806;-57
2021/12/04 14:37:12;;;;;;;;;32.25;26.75;;;;;21.00;37.98;99675.63;5097751;27;45307;-59
2021/12/04 14:39:50;;;;;;;;;34.50;27.50;;;;;20.99;38.11;99684.53;5097586;27;45356;-58
2021/12/04 14:42:25;;;;;;;;;33.75;27.25;;;;;20.98;38.22;99687.25;5097147;27;46413;-58
2021/12/04 14:44:57;;;;;;;;;30.25;26.25;;;;;20.97;37.86;99696.09;5078658;27;45957;-57